Time;durP1;ratioP1;P1;durP2;ratioP2;P2;SDS_P1;SDS_P2;PMS_P1;PMS_P2;Temp;Humidity;BMP_temperature;BMP_pressure;BME280_temperature;BME280_humidity;BME280_pressure;Samples;Min_cycle;Max_cycle;Signal;HPM_P1;HPM_P2
2022/03/12 00:00:12;;;;;;;10.35;5.05;;;;;;;;;;6283020;22;20024;-87
2022/03/12 00:02:40;;;;;;;14.60;5.15;;;;;;;;;;6283822;22;20012;-88
2022/03/12 00:05:08;;;;;;;11.68;4.82;;;;;;;;;;6285655;22;20023;-88
2022/03/12 00:07:40;;;;;;;11.13;5.07;;;;;;;;;;6299506;22;20015;-88
2022/03/12 00:10:12;;;;;;;12.93;4.93;;;;;;;;;;6304367;22;20011;-88
2022/03/12 00:12:41;;;;;;;12.85;5.18;;;;;;;;;;6262931;22;20022;-89
2022/03/12 00:15:11;;;;;;;11.85;5.18;;;;;;;;;;6282370;22;20466;-86
2022/03/12 00:17:46;;;;;;;11.60;5.70;;;;;;;;;;6282591;22;20020;-86
2022/03/12 00:20:17;;;;;;;11.02;4.50;;;;;;;;;;6282933;22;20024;-86
2022/03/12 00:22:50;;;;;;;10.38;5.38;;;;;;;;;;6282914;22;20026;-86
2022/03/12 00:25:20;;;;;;;14.55;5.40;;;;;;;;;;6270862;22;20031;-85
2022/03/12 00:27:50;;;;;;;10.13;4.93;;;;;;;;;;6282284;22;20047;-86
2022/03/12 00:30:20;;;;;;;10.68;4.93;;;;;;;;;;6281757;22;20034;-86
2022/03/12 00:32:48;;;;;;;12.48;5.13;;;;;;;;;;6282720;22;20100;-86
2022/03/12 00:35:16;;;;;;;13.38;5.18;;;;;;;;;;6280998;22;20016;-85
2022/03/12 00:37:44;;;;;;;9.40;5.10;;;;;;;;;;6270616;22;20015;-86
2022/03/12 00:40:13;;;;;;;13.40;5.25;;;;;;;;;;6282831;22;20027;-86
2022/03/12 00:42:42;;;;;;;11.98;5.13;;;;;;;;;;6281346;22;20023;-89
2022/03/12 00:45:10;;;;;;;14.57;6.10;;;;;;;;;;6282915;22;20023;-89
2022/03/12 00:47:37;;;;;;;10.45;5.05;;;;;;;;;;6282029;22;20077;-86
2022/03/12 00:50:06;;;;;;;12.13;4.60;;;;;;;;;;6282487;22;20098;-85
2022/03/12 00:52:33;;;;;;;11.25;4.72;;;;;;;;;;6281907;22;20394;-85
2022/03/12 00:55:01;;;;;;;11.23;4.95;;;;;;;;;;6255344;22;20031;-86
2022/03/12 00:57:29;;;;;;;14.18;5.03;;;;;;;;;;6280496;22;20034;-85
2022/03/12 00:59:57;;;;;;;11.65;4.85;;;;;;;;;;6281913;22;20034;-86
2022/03/12 01:02:25;;;;;;;13.25;4.55;;;;;;;;;;6279161;22;20019;-86
2022/03/12 01:04:53;;;;;;;9.73;4.32;;;;;;;;;;6282557;22;20049;-86
2022/03/12 01:07:21;;;;;;;11.25;4.72;;;;;;;;;;6280859;22;20019;-87
2022/03/12 01:09:49;;;;;;;12.73;4.65;;;;;;;;;;6283381;22;20351;-88
2022/03/12 01:12:17;;;;;;;14.50;4.93;;;;;;;;;;6280546;22;20028;-88
2022/03/12 01:14:45;;;;;;;11.45;5.35;;;;;;;;;;6282637;22;20050;-88
2022/03/12 01:17:13;;;;;;;9.18;4.38;;;;;;;;;;6281906;22;20833;-88
2022/03/12 01:19:41;;;;;;;9.73;3.85;;;;;;;;;;6256348;22;20015;-88
2022/03/12 01:22:12;;;;;;;9.38;3.88;;;;;;;;;;6280593;22;20066;-88
2022/03/12 01:24:40;;;;;;;12.90;5.32;;;;;;;;;;6270195;22;20023;-87
2022/03/12 01:27:07;;;;;;;14.45;4.93;;;;;;;;;;6282457;22;20028;-87
2022/03/12 01:29:35;;;;;;;11.32;4.45;;;;;;;;;;6282340;22;20387;-87
2022/03/12 01:32:03;;;;;;;10.93;5.03;;;;;;;;;;6280730;22;20038;-87
2022/03/12 01:34:31;;;;;;;12.25;5.50;;;;;;;;;;6281890;22;20019;-87
2022/03/12 01:36:59;;;;;;;13.30;4.82;;;;;;;;;;6283719;22;20012;-88
2022/03/12 01:39:28;;;;;;;10.73;4.78;;;;;;;;;;6245797;22;20073;-88
2022/03/12 01:41:55;;;;;;;9.32;4.85;;;;;;;;;;6278060;22;20111;-88
2022/03/12 01:44:23;;;;;;;12.27;4.72;;;;;;;;;;6270420;22;20023;-88
2022/03/12 01:46:51;;;;;;;8.13;4.40;;;;;;;;;;6280998;22;20716;-89
2022/03/12 01:49:22;;;;;;;11.20;4.75;;;;;;;;;;6281140;22;20086;-89
2022/03/12 01:51:52;;;;;;;14.18;5.40;;;;;;;;;;6283444;22;20024;-89
2022/03/12 01:54:24;;;;;;;8.88;4.30;;;;;;;;;;6281057;22;20019;-89
2022/03/12 01:56:53;;;;;;;12.55;4.95;;;;;;;;;;6271171;22;20031;-89
2022/03/12 01:59:21;;;;;;;12.70;4.57;;;;;;;;;;6281443;22;20015;-89
2022/03/12 02:01:52;;;;;;;12.85;5.20;;;;;;;;;;6281296;22;20023;-89
2022/03/12 02:04:20;;;;;;;13.48;5.28;;;;;;;;;;6281422;22;20030;-89
2022/03/12 02:06:51;;;;;;;10.73;5.13;;;;;;;;;;6282924;22;20019;-89
2022/03/12 02:09:22;;;;;;;12.93;5.38;;;;;;;;;;6280920;22;20427;-89
2022/03/12 02:11:51;;;;;;;10.98;5.63;;;;;;;;;;6282547;22;20031;-89
2022/03/12 02:14:25;;;;;;;11.52;4.30;;;;;;;;;;6282465;22;20069;-89
2022/03/12 02:17:00;;;;;;;13.43;5.72;;;;;;;;;;6296248;22;20024;-89
2022/03/12 02:19:29;;;;;;;14.25;5.05;;;;;;;;;;6280434;22;20020;-89
2022/03/12 02:22:00;;;;;;;13.00;5.07;;;;;;;;;;6280988;22;20077;-89
2022/03/12 02:24:30;;;;;;;14.70;5.10;;;;;;;;;;6255280;22;20119;-89
2022/03/12 02:26:59;;;;;;;12.93;5.20;;;;;;;;;;6280366;22;20439;-89
2022/03/12 02:29:27;;;;;;;9.80;4.53;;;;;;;;;;6282031;22;20020;-89
2022/03/12 02:31:58;;;;;;;10.48;4.93;;;;;;;;;;6282451;22;20390;-89
2022/03/12 02:34:30;;;;;;;9.50;4.78;;;;;;;;;;6280256;22;20019;-89
2022/03/12 02:36:57;;;;;;;11.93;5.03;;;;;;;;;;6280628;22;20043;-80
2022/03/12 02:39:27;;;;;;;10.82;4.82;;;;;;;;;;6283024;22;20073;-80
2022/03/12 02:41:55;;;;;;;11.60;6.28;;;;;;;;;;6284333;22;20043;-79
2022/03/12 02:44:28;;;;;;;11.02;5.22;;;;;;;;;;6283412;22;20020;-80
2022/03/12 02:47:17;;;;;;;12.13;5.25;;;;;;;;;;6282924;22;20311;-79
2022/03/12 02:50:07;;;;;;;11.15;4.85;;;;;;;;;;6282047;22;20015;-80
2022/03/12 02:52:41;;;;;;;11.93;5.47;;;;;;;;;;6282072;22;20016;-80
2022/03/12 02:55:13;;;;;;;13.05;5.22;;;;;;;;;;6284173;22;20019;-80
2022/03/12 02:57:43;;;;;;;18.55;5.22;;;;;;;;;;6283473;22;20126;-80
2022/03/12 03:00:12;;;;;;;11.10;4.57;;;;;;;;;;6285438;22;20023;-81
2022/03/12 03:02:47;;;;;;;13.90;5.10;;;;;;;;;;6284179;22;20023;-81
2022/03/12 03:05:45;;;;;;;11.73;4.55;;;;;;;;;;6275559;22;20323;-80
2022/03/12 03:08:09;;;;;;;13.20;5.10;;;;;;;;;;6285139;22;20050;-79
2022/03/12 03:10:41;;;;;;;11.88;4.88;;;;;;;;;;6284604;22;20102;-89
2022/03/12 03:13:31;;;;;;;13.07;5.38;;;;;;;;;;6282276;22;20447;-89
2022/03/12 03:16:03;;;;;;;13.27;4.65;;;;;;;;;;6282719;22;20016;-89
2022/03/12 03:18:34;;;;;;;10.15;4.93;;;;;;;;;;6282026;22;20174;-89
2022/03/12 03:21:04;;;;;;;9.50;4.55;;;;;;;;;;6283093;22;20102;-89
2022/03/12 03:23:34;;;;;;;13.68;5.10;;;;;;;;;;6282374;22;20069;-89
2022/03/12 03:26:04;;;;;;;12.82;5.47;;;;;;;;;;6257021;22;20023;-89
2022/03/12 03:28:34;;;;;;;10.95;4.40;;;;;;;;;;6283594;22;20039;-89
2022/03/12 03:31:05;;;;;;;12.32;5.03;;;;;;;;;;6282492;22;20093;-89
2022/03/12 03:33:34;;;;;;;11.85;5.20;;;;;;;;;;6271832;22;20352;-89
2022/03/12 03:36:02;;;;;;;13.10;5.13;;;;;;;;;;6284072;22;20086;-89
2022/03/12 03:38:30;;;;;;;12.73;4.53;;;;;;;;;;6282426;22;20030;-89
2022/03/12 03:40:58;;;;;;;12.57;5.18;;;;;;;;;;6284096;22;20458;-89
2022/03/12 03:43:28;;;;;;;11.68;5.35;;;;;;;;;;6282896;22;20016;-89
2022/03/12 03:45:57;;;;;;;11.27;4.30;;;;;;;;;;6284522;22;20021;-89
2022/03/12 03:48:35;;;;;;;9.50;5.13;;;;;;;;;;6282289;22;20533;-89
2022/03/12 03:51:02;;;;;;;10.90;5.15;;;;;;;;;;6282689;22;20024;-89
2022/03/12 03:53:30;;;;;;;14.77;5.00;;;;;;;;;;6257090;22;20077;-89
2022/03/12 03:55:59;;;;;;;12.27;5.65;;;;;;;;;;6283162;22;20274;-89
2022/03/12 03:58:27;;;;;;;11.85;5.10;;;;;;;;;;6283432;22;20541;-89
2022/03/12 04:00:58;;;;;;;7.80;4.32;;;;;;;;;;6257475;22;20090;-89
2022/03/12 04:03:34;;;;;;;13.13;4.80;;;;;;;;;;6283405;22;20024;-89
2022/03/12 04:06:04;;;;;;;9.40;4.63;;;;;;;;;;6282297;22;20358;-89
2022/03/12 04:08:34;;;;;;;9.73;4.28;;;;;;;;;;6284438;22;20027;-89
2022/03/12 04:11:07;;;;;;;9.50;4.43;;;;;;;;;;6288780;22;20035;-89
2022/03/12 04:13:36;;;;;;;9.05;4.28;;;;;;;;;;6257864;22;20328;-89
2022/03/12 04:16:06;;;;;;;12.82;5.28;;;;;;;;;;6274106;22;20161;-89
2022/03/12 04:18:35;;;;;;;9.90;4.45;;;;;;;;;;6281444;22;20027;-89
2022/03/12 04:21:04;;;;;;;12.00;5.40;;;;;;;;;;6247404;22;20384;-80
2022/03/12 04:23:34;;;;;;;10.80;5.03;;;;;;;;;;6284400;22;20053;-80
2022/03/12 04:26:01;;;;;;;12.90;5.10;;;;;;;;;;6284665;22;20015;-88
2022/03/12 04:28:32;;;;;;;15.77;6.53;;;;;;;;;;6284574;22;20019;-88
2022/03/12 04:31:01;;;;;;;12.43;5.25;;;;;;;;;;6276654;22;20038;-88
2022/03/12 04:33:29;;;;;;;10.10;4.88;;;;;;;;;;6285064;22;20038;-88
2022/03/12 04:35:58;;;;;;;11.48;5.07;;;;;;;;;;6284357;22;20122;-88
2022/03/12 04:38:25;;;;;;;12.45;4.72;;;;;;;;;;6271987;22;20020;-88
2022/03/12 04:40:57;;;;;;;10.32;5.00;;;;;;;;;;6283159;22;20042;-88
2022/03/12 04:43:26;;;;;;;12.45;5.50;;;;;;;;;;6283282;22;20043;-88
2022/03/12 04:45:53;;;;;;;12.43;5.10;;;;;;;;;;6245452;22;20016;-88
2022/03/12 04:48:22;;;;;;;9.73;4.78;;;;;;;;;;6282108;22;20054;-88
2022/03/12 04:50:53;;;;;;;11.95;4.30;;;;;;;;;;6283133;22;20019;-88
2022/03/12 04:53:21;;;;;;;8.45;3.95;;;;;;;;;;6283917;22;20027;-88
2022/03/12 04:55:49;;;;;;;10.18;5.07;;;;;;;;;;6284534;22;20316;-88
2022/03/12 04:58:18;;;;;;;13.65;4.90;;;;;;;;;;6284631;22;20023;-88
2022/03/12 05:00:46;;;;;;;9.40;4.53;;;;;;;;;;6282839;22;20012;-89
2022/03/12 05:03:18;;;;;;;10.15;4.40;;;;;;;;;;6270680;22;20019;-89
2022/03/12 05:05:49;;;;;;;12.40;5.13;;;;;;;;;;6281337;22;20817;-89
2022/03/12 05:08:25;;;;;;;12.30;4.85;;;;;;;;;;6281135;22;20078;-89
2022/03/12 05:10:55;;;;;;;11.38;5.57;;;;;;;;;;6282315;22;20473;-89
2022/03/12 05:13:27;;;;;;;10.82;4.55;;;;;;;;;;6284830;22;20733;-89
2022/03/12 05:16:01;;;;;;;12.43;5.43;;;;;;;;;;6283197;22;20012;-89
2022/03/12 05:18:30;;;;;;;11.63;4.45;;;;;;;;;;6283469;22;20082;-89
2022/03/12 05:20:57;;;;;;;12.27;5.22;;;;;;;;;;6281560;22;20077;-89
2022/03/12 05:23:26;;;;;;;11.75;5.25;;;;;;;;;;6284358;22;20470;-89
2022/03/12 05:25:53;;;;;;;9.70;4.53;;;;;;;;;;6283122;22;20027;-89
2022/03/12 05:28:26;;;;;;;10.35;4.35;;;;;;;;;;6282404;22;20015;-89
2022/03/12 05:30:59;;;;;;;10.38;4.55;;;;;;;;;;6306213;22;20130;-89
2022/03/12 05:33:27;;;;;;;11.00;4.50;;;;;;;;;;6282941;22;20019;-89
2022/03/12 05:35:56;;;;;;;10.20;4.28;;;;;;;;;;6282745;22;20016;-89
2022/03/12 05:38:24;;;;;;;11.23;4.75;;;;;;;;;;6281373;22;20038;-81
2022/03/12 05:40:53;;;;;;;9.18;4.22;;;;;;;;;;6284588;22;20026;-80
2022/03/12 05:43:21;;;;;;;10.77;4.55;;;;;;;;;;6284027;22;20023;-89
2022/03/12 05:45:52;;;;;;;10.68;4.43;;;;;;;;;;6281499;22;20508;-89
2022/03/12 05:48:21;;;;;;;10.20;4.60;;;;;;;;;;6280430;22;20023;-89
2022/03/12 05:50:49;;;;;;;9.80;4.60;;;;;;;;;;6282905;22;20015;-89
2022/03/12 05:53:19;;;;;;;9.93;4.25;;;;;;;;;;6281081;22;20022;-89
2022/03/12 05:55:47;;;;;;;7.60;3.65;;;;;;;;;;6281362;22;20073;-88
2022/03/12 05:58:19;;;;;;;10.25;4.68;;;;;;;;;;6282550;22;20406;-89
2022/03/12 06:00:54;;;;;;;9.52;4.45;;;;;;;;;;6284065;22;20007;-88
2022/03/12 06:03:24;;;;;;;8.93;4.40;;;;;;;;;;6284395;22;20030;-88
2022/03/12 06:05:57;;;;;;;12.35;5.40;;;;;;;;;;6284629;22;20016;-89
2022/03/12 06:08:27;;;;;;;9.02;3.58;;;;;;;;;;6302727;22;20000;-89
2022/03/12 06:10:56;;;;;;;12.07;4.53;;;;;;;;;;6281340;22;20018;-79
2022/03/12 06:13:31;;;;;;;8.98;4.30;;;;;;;;;;6283549;22;20025;-79
2022/03/12 06:16:00;;;;;;;12.30;4.75;;;;;;;;;;6284139;22;20035;-79
2022/03/12 06:18:38;;;;;;;16.33;4.55;;;;;;;;;;6281650;22;20083;-80
2022/03/12 06:21:06;;;;;;;9.73;4.35;;;;;;;;;;6257165;22;20409;-79
2022/03/12 06:23:33;;;;;;;9.70;4.60;;;;;;;;;;6282238;22;20354;-80
2022/03/12 06:26:09;;;;;;;10.32;4.65;;;;;;;;;;6283229;22;20019;-79
2022/03/12 06:28:39;;;;;;;10.60;4.70;;;;;;;;;;6284828;22;20030;-79
2022/03/12 06:31:07;;;;;;;10.60;4.95;;;;;;;;;;6285469;22;20023;-80
2022/03/12 06:33:35;;;;;;;12.82;4.85;;;;;;;;;;6272689;22;20363;-79
2022/03/12 06:36:03;;;;;;;11.30;4.68;;;;;;;;;;6284209;22;20020;-79
2022/03/12 06:38:32;;;;;;;11.43;4.90;;;;;;;;;;6258712;22;20023;-80
2022/03/12 06:40:59;;;;;;;9.88;5.03;;;;;;;;;;6284719;22;20023;-80
2022/03/12 06:43:30;;;;;;;14.00;5.47;;;;;;;;;;6285960;22;20091;-79
2022/03/12 06:46:01;;;;;;;8.35;4.13;;;;;;;;;;6287800;22;20034;-79
2022/03/12 06:48:30;;;;;;;9.85;4.93;;;;;;;;;;6274014;22;20024;-79
2022/03/12 06:50:57;;;;;;;11.63;4.63;;;;;;;;;;6285158;22;20019;-79
2022/03/12 06:53:25;;;;;;;7.28;3.80;;;;;;;;;;6285057;22;20455;-79
2022/03/12 06:55:53;;;;;;;12.45;4.78;;;;;;;;;;6285429;22;20028;-79
2022/03/12 06:58:22;;;;;;;10.50;4.80;;;;;;;;;;6283971;22;20029;-79
2022/03/12 07:00:51;;;;;;;11.07;4.72;;;;;;;;;;6286086;22;20020;-79
2022/03/12 07:03:19;;;;;;;11.60;4.07;;;;;;;;;;6283249;22;20047;-79
2022/03/12 07:05:47;;;;;;;12.35;4.72;;;;;;;;;;6285775;22;20443;-79
2022/03/12 07:08:15;;;;;;;9.77;4.32;;;;;;;;;;6273849;22;20027;-79
2022/03/12 07:10:43;;;;;;;11.30;4.68;;;;;;;;;;6285206;22;20085;-79
2022/03/12 07:13:11;;;;;;;12.48;5.35;;;;;;;;;;6284394;22;20019;-79
2022/03/12 07:15:39;;;;;;;9.18;4.10;;;;;;;;;;6284871;22;20077;-80
2022/03/12 07:18:07;;;;;;;10.15;4.60;;;;;;;;;;6284012;22;20019;-79
2022/03/12 07:20:35;;;;;;;9.15;4.25;;;;;;;;;;6272909;22;20126;-79
2022/03/12 07:23:03;;;;;;;10.23;4.55;;;;;;;;;;6273381;22;20362;-79
2022/03/12 07:25:32;;;;;;;10.82;4.82;;;;;;;;;;6286425;22;20090;-80
2022/03/12 07:28:00;;;;;;;9.18;4.20;;;;;;;;;;6273850;22;20042;-80
2022/03/12 07:30:27;;;;;;;11.70;4.25;;;;;;;;;;6284159;22;20339;-80
2022/03/12 07:32:55;;;;;;;10.40;4.60;;;;;;;;;;6285409;22;20404;-81
2022/03/12 07:35:23;;;;;;;7.53;4.28;;;;;;;;;;6285876;22;20096;-79
2022/03/12 07:37:51;;;;;;;8.50;3.78;;;;;;;;;;6285383;22;20111;-79
2022/03/12 07:40:19;;;;;;;10.98;4.35;;;;;;;;;;6285240;22;20019;-79
2022/03/12 07:42:47;;;;;;;8.07;3.63;;;;;;;;;;6284704;22;20030;-79
2022/03/12 07:45:15;;;;;;;8.70;3.63;;;;;;;;;;6285627;22;20069;-79
2022/03/12 07:47:43;;;;;;;8.48;4.30;;;;;;;;;;6283920;22;20110;-80
2022/03/12 07:50:12;;;;;;;9.43;3.90;;;;;;;;;;6285303;22;20015;-79
2022/03/12 07:52:41;;;;;;;10.70;4.68;;;;;;;;;;6285341;22;20038;-79
2022/03/12 07:55:10;;;;;;;12.43;4.25;;;;;;;;;;6284893;22;20020;-80
2022/03/12 07:57:40;;;;;;;4.82;2.28;;;;;;;;;;6283935;22;20023;-79
2022/03/12 08:00:12;;;;;;;7.45;3.70;;;;;;;;;;6284942;22;20027;-80
2022/03/12 08:02:46;;;;;;;8.90;4.07;;;;;;;;;;6284564;22;20020;-80
2022/03/12 08:05:21;;;;;;;11.88;4.05;;;;;;;;;;6284700;22;20019;-80
2022/03/12 08:07:50;;;;;;;8.70;3.95;;;;;;;;;;6308659;22;20024;-79
2022/03/12 08:10:17;;;;;;;9.70;3.95;;;;;;;;;;6284699;22;20428;-79
2022/03/12 08:12:46;;;;;;;12.10;4.25;;;;;;;;;;6284136;22;20387;-80
2022/03/12 08:15:15;;;;;;;13.30;4.35;;;;;;;;;;6273067;22;20019;-80
2022/03/12 08:17:44;;;;;;;11.32;3.50;;;;;;;;;;6284388;22;20027;-79
2022/03/12 08:20:11;;;;;;;10.95;4.05;;;;;;;;;;6284532;22;20011;-79
2022/03/12 08:22:45;;;;;;;9.02;4.15;;;;;;;;;;6284150;22;20093;-80
2022/03/12 08:25:14;;;;;;;10.35;3.63;;;;;;;;;;6284901;22;20046;-79
2022/03/12 08:27:42;;;;;;;10.70;4.22;;;;;;;;;;6284120;22;20081;-79
2022/03/12 08:30:10;;;;;;;7.65;4.20;;;;;;;;;;6247218;22;20095;-79
2022/03/12 08:32:40;;;;;;;9.32;4.07;;;;;;;;;;6283827;22;20055;-80
2022/03/12 08:35:09;;;;;;;10.00;4.40;;;;;;;;;;6282716;22;20022;-80
2022/03/12 08:37:37;;;;;;;9.20;4.10;;;;;;;;;;6284426;22;20016;-80
2022/03/12 08:40:06;;;;;;;10.02;4.10;;;;;;;;;;6284370;22;20016;-80
2022/03/12 08:42:35;;;;;;;10.18;4.18;;;;;;;;;;6284588;22;20042;-80
2022/03/12 08:45:04;;;;;;;7.95;3.33;;;;;;;;;;6284941;22;20109;-80
2022/03/12 08:47:31;;;;;;;8.02;4.30;;;;;;;;;;6280714;22;20024;-79
2022/03/12 08:49:59;;;;;;;10.80;3.70;;;;;;;;;;6282397;22;20297;-80
2022/03/12 08:52:27;;;;;;;8.82;4.35;;;;;;;;;;6282619;22;20046;-80
2022/03/12 08:54:55;;;;;;;8.55;3.85;;;;;;;;;;6284246;22;20039;-79
2022/03/12 08:57:23;;;;;;;7.68;3.83;;;;;;;;;;6283977;22;20455;-79
2022/03/12 08:59:51;;;;;;;9.77;4.38;;;;;;;;;;6284502;22;20030;-80
2022/03/12 09:02:20;;;;;;;8.18;3.72;;;;;;;;;;6284404;22;20116;-79
2022/03/12 09:04:50;;;;;;;4.80;2.70;;;;;;;;;;6284337;22;20019;-79
2022/03/12 09:07:17;;;;;;;9.25;4.15;;;;;;;;;;6284382;22;20041;-80
2022/03/12 09:09:45;;;;;;;7.32;3.78;;;;;;;;;;6284527;22;20030;-80
2022/03/12 09:12:13;;;;;;;9.75;3.63;;;;;;;;;;6277862;22;20026;-81
2022/03/12 09:14:42;;;;;;;8.45;3.80;;;;;;;;;;6283131;22;20065;-80
2022/03/12 09:17:09;;;;;;;9.88;4.05;;;;;;;;;;6284425;22;20366;-80
2022/03/12 09:19:39;;;;;;;7.90;4.07;;;;;;;;;;6282966;22;20099;-80
2022/03/12 09:22:07;;;;;;;8.45;3.42;;;;;;;;;;6283307;22;20661;-80
2022/03/12 09:24:38;;;;;;;10.43;4.45;;;;;;;;;;6283911;22;20047;-80
2022/03/12 09:27:05;;;;;;;8.75;3.83;;;;;;;;;;6284471;22;20016;-80
2022/03/12 09:29:34;;;;;;;8.75;4.35;;;;;;;;;;6282231;22;20023;-80
2022/03/12 09:32:08;;;;;;;7.93;3.95;;;;;;;;;;6282135;22;20039;-79
2022/03/12 09:34:35;;;;;;;10.15;4.07;;;;;;;;;;6283291;22;20030;-79
2022/03/12 09:37:04;;;;;;;7.70;3.90;;;;;;;;;;6282349;22;20050;-79
2022/03/12 09:39:34;;;;;;;7.35;3.67;;;;;;;;;;6284237;22;20023;-79
2022/03/12 09:42:01;;;;;;;9.55;3.85;;;;;;;;;;6284299;22;20451;-80
2022/03/12 09:44:29;;;;;;;9.73;4.28;;;;;;;;;;6284379;22;20094;-79
2022/03/12 09:46:57;;;;;;;7.20;3.83;;;;;;;;;;6284654;22;20019;-79
2022/03/12 09:49:25;;;;;;;9.60;4.20;;;;;;;;;;6283801;22;20019;-80
2022/03/12 09:51:53;;;;;;;8.25;4.47;;;;;;;;;;6283507;22;20045;-79
2022/03/12 09:54:22;;;;;;;7.10;3.75;;;;;;;;;;6272269;22;20069;-79
2022/03/12 09:56:51;;;;;;;9.93;5.00;;;;;;;;;;6282727;22;20094;-79
2022/03/12 09:59:19;;;;;;;9.18;4.63;;;;;;;;;;6283717;22;20020;-79
2022/03/12 10:01:47;;;;;;;10.60;4.72;;;;;;;;;;6283818;22;20018;-80
2022/03/12 10:04:15;;;;;;;7.60;3.88;;;;;;;;;;6283919;22;20024;-79
2022/03/12 10:06:45;;;;;;;10.75;4.40;;;;;;;;;;6284702;22;20447;-80
2022/03/12 10:09:13;;;;;;;7.32;4.05;;;;;;;;;;6283763;22;20020;-80
2022/03/12 10:11:41;;;;;;;9.43;4.20;;;;;;;;;;6283661;22;20046;-80
2022/03/12 10:14:09;;;;;;;9.10;4.15;;;;;;;;;;6281762;22;20011;-79
2022/03/12 10:16:37;;;;;;;7.97;3.63;;;;;;;;;;6283509;22;20024;-79
2022/03/12 10:19:06;;;;;;;8.75;4.15;;;;;;;;;;6282959;22;20034;-80
2022/03/12 10:21:35;;;;;;;10.23;4.45;;;;;;;;;;6282812;22;20052;-80
2022/03/12 10:24:06;;;;;;;7.30;3.83;;;;;;;;;;6282542;22;20019;-79
2022/03/12 10:26:33;;;;;;;9.05;3.95;;;;;;;;;;6283790;22;20099;-80
2022/03/12 10:29:01;;;;;;;8.68;4.00;;;;;;;;;;6283224;22;20020;-80
2022/03/12 10:31:29;;;;;;;8.07;4.63;;;;;;;;;;6283022;22;20408;-80
2022/03/12 10:34:21;;;;;;;14.57;4.40;;;;;;;;;;6283508;22;20019;-80
2022/03/12 10:36:57;;;;;;;9.20;4.30;;;;;;;;;;6281415;22;20023;-80
2022/03/12 10:39:31;;;;;;;6.78;3.67;;;;;;;;;;6283306;22;20439;-80
2022/03/12 10:42:07;;;;;;;7.10;3.58;;;;;;;;;;6282514;22;20015;-80
2022/03/12 10:44:40;;;;;;;10.80;4.40;;;;;;;;;;6286024;22;20029;-80
2022/03/12 10:47:23;;;;;;;10.73;4.70;;;;;;;;;;6283592;22;20325;-80
2022/03/12 10:49:57;;;;;;;7.65;4.28;;;;;;;;;;6282587;22;20035;-80
2022/03/12 10:52:31;;;;;;;8.35;4.25;;;;;;;;;;6284084;22;20022;-80
2022/03/12 10:55:06;;;;;;;7.90;4.32;;;;;;;;;;6308903;22;20098;-79
2022/03/12 10:57:33;;;;;;;11.32;4.43;;;;;;;;;;6246004;22;20032;-80
2022/03/12 11:00:02;;;;;;;10.70;4.45;;;;;;;;;;6283922;22;20023;-80
2022/03/12 11:02:29;;;;;;;11.45;4.35;;;;;;;;;;6283566;22;20025;-79
2022/03/12 11:05:02;;;;;;;9.48;4.07;;;;;;;;;;6283753;22;20047;-80
2022/03/12 11:07:30;;;;;;;7.63;3.85;;;;;;;;;;6283216;22;20020;-80
2022/03/12 11:09:57;;;;;;;7.75;3.97;;;;;;;;;;6284047;22;20026;-79
2022/03/12 11:12:35;;;;;;;11.35;4.50;;;;;;;;;;6281473;22;20023;-80
2022/03/12 11:15:08;;;;;;;9.43;4.13;;;;;;;;;;6283943;22;20359;-79
2022/03/12 11:17:43;;;;;;;11.02;3.97;;;;;;;;;;6284606;22;20030;-80
2022/03/12 11:20:27;;;;;;;7.22;4.13;;;;;;;;;;6285338;22;20076;-80
2022/03/12 11:23:07;;;;;;;7.57;4.00;;;;;;;;;;6285876;22;20019;-80
2022/03/12 11:25:57;;;;;;;7.28;3.00;;;;;;;;;;6284395;22;20019;-80
2022/03/12 11:28:28;;;;;;;10.25;4.15;;;;;;;;;;6284734;22;20344;-79
2022/03/12 11:30:57;;;;;;;8.63;4.22;;;;;;;;;;6283892;22;20032;-79
2022/03/12 11:33:28;;;;;;;8.82;4.53;;;;;;;;;;6284405;22;20099;-81
2022/03/12 11:36:00;;;;;;;8.82;4.07;;;;;;;;;;6284752;22;20327;-79
2022/03/12 11:38:30;;;;;;;10.27;3.90;;;;;;;;;;6257798;22;20023;-79
2022/03/12 11:41:23;;;;;;;7.60;4.50;;;;;;;;;;6272440;22;20019;-79
2022/03/12 11:43:51;;;;;;;8.25;3.72;;;;;;;;;;6284464;22;20081;-80
2022/03/12 11:46:19;;;;;;;6.97;3.47;;;;;;;;;;6248329;22;20016;-81
2022/03/12 11:48:47;;;;;;;9.80;4.30;;;;;;;;;;6284134;22;20023;-80
2022/03/12 11:51:23;;;;;;;8.43;3.90;;;;;;;;;;6286526;22;20084;-80
2022/03/12 11:53:53;;;;;;;8.30;4.22;;;;;;;;;;6287313;22;20046;-80
2022/03/12 11:56:26;;;;;;;9.07;4.20;;;;;;;;;;6295612;22;20439;-81
2022/03/12 11:58:53;;;;;;;8.45;4.47;;;;;;;;;;6296363;22;20035;-81
2022/03/12 12:01:21;;;;;;;16.10;4.65;;;;;;;;;;6296251;22;20038;-81
2022/03/12 12:03:53;;;;;;;7.43;3.75;;;;;;;;;;6289776;22;20028;-81
2022/03/12 12:06:21;;;;;;;10.18;3.90;;;;;;;;;;6288274;22;20110;-81
2022/03/12 12:08:51;;;;;;;6.65;3.65;;;;;;;;;;6286553;22;20091;-80
2022/03/12 12:11:19;;;;;;;6.43;3.35;;;;;;;;;;6284633;22;20038;-81
2022/03/12 12:13:47;;;;;;;9.27;3.92;;;;;;;;;;6284655;22;20020;-81
2022/03/12 12:16:18;;;;;;;9.05;4.60;;;;;;;;;;6273283;22;20459;-81
2022/03/12 12:18:45;;;;;;;8.30;4.53;;;;;;;;;;6285988;22;20076;-80
2022/03/12 12:21:17;;;;;;;8.68;4.47;;;;;;;;;;6287398;22;20012;-80
2022/03/12 12:23:47;;;;;;;6.97;4.25;;;;;;;;;;6287145;22;20019;-81
2022/03/12 12:26:15;;;;;;;9.77;4.82;;;;;;;;;;6286936;22;20026;-81
2022/03/12 12:28:52;;;;;;;9.10;4.45;;;;;;;;;;6286428;22;20075;-81
2022/03/12 12:31:26;;;;;;;11.02;4.82;;;;;;;;;;6286412;22;20024;-80
2022/03/12 12:33:57;;;;;;;8.43;4.18;;;;;;;;;;6286165;22;20019;-80
2022/03/12 12:36:25;;;;;;;10.25;4.80;;;;;;;;;;6287043;22;20085;-81
2022/03/12 12:39:08;;;;;;;8.45;4.03;;;;;;;;;;6286095;22;20015;-81
2022/03/12 12:41:54;;;;;;;8.52;4.45;;;;;;;;;;6286554;22;20026;-81
2022/03/12 12:44:33;;;;;;;8.73;4.03;;;;;;;;;;6285943;22;20023;-81
2022/03/12 12:47:03;;;;;;;8.13;4.25;;;;;;;;;;6287281;22;20030;-79
2022/03/12 12:49:40;;;;;;;8.02;4.10;;;;;;;;;;6284921;22;20363;-79
2022/03/12 12:52:10;;;;;;;7.80;4.35;;;;;;;;;;6284180;22;20688;-80
2022/03/12 12:54:58;;;;;;;7.70;3.88;;;;;;;;;;6281097;22;20015;-78
2022/03/12 12:57:41;;;;;;;7.55;4.22;;;;;;;;;;6277954;22;20384;-78
2022/03/12 13:00:32;;;;;;;8.90;4.28;;;;;;;;;;6280473;22;20058;-79
2022/03/12 13:03:10;;;;;;;9.80;4.63;;;;;;;;;;6281230;22;20024;-77
2022/03/12 13:05:44;;;;;;;9.05;4.35;;;;;;;;;;6278672;22;20095;-78
2022/03/12 13:08:13;;;;;;;10.18;4.18;;;;;;;;;;6278125;22;20634;-78
2022/03/12 13:10:41;;;;;;;8.40;4.25;;;;;;;;;;6280197;22;20019;-78
2022/03/12 13:13:18;;;;;;;7.93;3.97;;;;;;;;;;6280847;22;20011;-79
2022/03/12 13:15:49;;;;;;;6.13;3.42;;;;;;;;;;6278070;22;20099;-78
2022/03/12 13:18:17;;;;;;;9.13;4.30;;;;;;;;;;6279999;22;20078;-78
2022/03/12 13:20:46;;;;;;;9.25;4.15;;;;;;;;;;6280225;22;20027;-81
2022/03/12 13:23:19;;;;;;;9.85;4.47;;;;;;;;;;6281388;22;20091;-79
2022/03/12 13:25:53;;;;;;;11.15;4.35;;;;;;;;;;6283430;22;20016;-79
2022/03/12 13:28:47;;;;;;;8.85;4.22;;;;;;;;;;6284395;22;20038;-79
2022/03/12 13:31:31;;;;;;;9.32;4.22;;;;;;;;;;6280332;22;20023;-79
2022/03/12 13:34:12;;;;;;;8.52;4.70;;;;;;;;;;6279246;22;20416;-79
2022/03/12 13:36:45;;;;;;;9.55;4.28;;;;;;;;;;6280738;22;20336;-80
2022/03/12 13:39:16;;;;;;;9.45;4.50;;;;;;;;;;6270823;22;20033;-79
2022/03/12 13:41:45;;;;;;;8.40;4.43;;;;;;;;;;6281558;22;20066;-80
2022/03/12 13:44:15;;;;;;;6.35;3.75;;;;;;;;;;6281830;22;20518;-79
2022/03/12 13:46:46;;;;;;;8.75;4.28;;;;;;;;;;6289940;22;20419;-80
2022/03/12 13:49:17;;;;;;;8.82;4.32;;;;;;;;;;6287220;22;20023;-81
2022/03/12 13:51:47;;;;;;;7.90;4.60;;;;;;;;;;6289644;22;20035;-80
2022/03/12 13:54:16;;;;;;;6.95;3.58;;;;;;;;;;6290843;22;20046;-80
2022/03/12 13:56:45;;;;;;;8.50;4.25;;;;;;;;;;6287726;22;20050;-80
2022/03/12 13:59:27;;;;;;;9.15;4.13;;;;;;;;;;6280975;22;20335;-80
2022/03/12 14:01:58;;;;;;;8.60;4.10;;;;;;;;;;6280355;22;20015;-80
2022/03/12 14:04:28;;;;;;;10.32;3.60;;;;;;;;;;6288710;22;20509;-80
2022/03/12 14:07:18;;;;;;;8.07;4.10;;;;;;;;;;6231865;22;20028;-81
2022/03/12 14:09:48;;;;;;;9.20;4.00;;;;;;;;;;6284238;22;20019;-80
2022/03/12 14:12:18;;;;;;;9.00;4.13;;;;;;;;;;6283318;22;20023;-80
2022/03/12 14:14:48;;;;;;;8.93;4.18;;;;;;;;;;6288668;22;20023;-80
2022/03/12 14:17:16;;;;;;;8.80;4.30;;;;;;;;;;6286158;22;20019;-80
2022/03/12 14:19:43;;;;;;;8.43;4.18;;;;;;;;;;6288520;22;20062;-80
2022/03/12 14:22:11;;;;;;;8.18;3.95;;;;;;;;;;6284979;22;20658;-80
2022/03/12 14:24:40;;;;;;;9.23;4.97;;;;;;;;;;6253081;22;20016;-80
2022/03/12 14:27:11;;;;;;;9.90;4.20;;;;;;;;;;6289399;22;20087;-81
2022/03/12 14:29:42;;;;;;;8.20;3.80;;;;;;;;;;6285303;22;20398;-80
2022/03/12 14:32:12;;;;;;;8.35;3.92;;;;;;;;;;6286252;22;20099;-79
2022/03/12 14:34:41;;;;;;;8.60;4.35;;;;;;;;;;6284818;22;20012;-80
2022/03/12 14:37:10;;;;;;;10.02;4.55;;;;;;;;;;6283522;22;20103;-80
2022/03/12 14:39:38;;;;;;;9.63;4.65;;;;;;;;;;6282591;22;20073;-80
2022/03/12 14:42:09;;;;;;;7.30;3.83;;;;;;;;;;6288632;22;20016;-80
2022/03/12 14:44:40;;;;;;;7.55;3.97;;;;;;;;;;6274679;22;20023;-80
2022/03/12 14:47:11;;;;;;;8.55;4.25;;;;;;;;;;6284444;22;20118;-79
2022/03/12 14:49:41;;;;;;;8.32;4.05;;;;;;;;;;6285074;22;20190;-79
2022/03/12 14:52:18;;;;;;;7.88;4.32;;;;;;;;;;6287651;22;20012;-80
2022/03/12 14:54:47;;;;;;;8.02;4.15;;;;;;;;;;6250604;22;20474;-80